Wetterdaten: aktuell Sonntag, 05.12.2021 23:25
Datum Zeit Temp. A. Feuchte A. Luftdruck Regen Wind Richtung Richtung ET Taupunkt Windchill Windben Empfang
05.12.2021 23:25 0,6 C 100 % 1008,7 hPa 0,4 l/m 0,0 km/h (0 Bft) SO 146 0,000 mm 0,6 C 0,6 C 0,0 km/h (0 Bft) 100 %
05.12.2021 22:25 1,1 C 100 % 1008,4 hPa 0,4 l/m 0,0 km/h (0 Bft) SO 146 0,000 mm 1,1 C 1,1 C 0,0 km/h (0 Bft) 100 %
05.12.2021 21:25 1,2 C 100 % 1008,4 hPa 0,2 l/m 0,0 km/h (0 Bft) SO 146 0,000 mm 1,2 C 1,2 C 0,0 km/h (0 Bft) 100 %
05.12.2021 20:25 1,2 C 100 % 1008,0 hPa 0,0 l/m 0,0 km/h (0 Bft) SO 146 0,000 mm 1,2 C 1,2 C 0,0 km/h (0 Bft) 100 %
05.12.2021 19:25 1,2 C 100 % 1008,1 hPa 0,0 l/m 0,0 km/h (0 Bft) SO 146 0,000 mm 1,2 C 1,2 C 0,0 km/h (0 Bft) 99 %
05.12.2021 18:25 1,1 C 100 % 1007,9 hPa 0,0 l/m 0,0 km/h (0 Bft) SO 146 0,000 mm 1,1 C 1,1 C 0,0 km/h (0 Bft) 100 %
05.12.2021 17:25 1,3 C 99 % 1007,5 hPa 0,0 l/m 0,0 km/h (0 Bft) S-SO 148 0,000 mm 1,2 C 1,3 C 0,0 km/h (0 Bft) 100 %
05.12.2021 16:25 1,5 C 99 % 1007,1 hPa 0,0 l/m 0,0 km/h (0 Bft) S-SO 148 0,000 mm 1,4 C 1,5 C 0,0 km/h (0 Bft) 100 %
05.12.2021 15:25 2,0 C 99 % 1006,4 hPa 0,2 l/m 0,0 km/h (0 Bft) S-SO 148 0,000 mm 1,9 C 2,0 C 0,0 km/h (0 Bft) 100 %
05.12.2021 14:25 2,0 C 99 % 1006,1 hPa 0,2 l/m 0,0 km/h (0 Bft) S-SO 148 0,000 mm 1,9 C 2,0 C 0,0 km/h (0 Bft) 100 %
05.12.2021 13:25 1,8 C 99 % 1006,5 hPa 0,6 l/m 0,0 km/h (0 Bft) SO 144 0,000 mm 1,7 C 1,8 C 0,0 km/h (0 Bft) 100 %
05.12.2021 12:25 1,8 C 99 % 1006,7 hPa 0,2 l/m 0,0 km/h (0 Bft) S-SO 158 0,000 mm 1,7 C 1,8 C 0,0 km/h (0 Bft) 93 %
05.12.2021 11:25 1,6 C 99 % 1006,9 hPa 0,8 l/m 0,0 km/h (0 Bft) SO 135 0,000 mm 1,5 C 1,6 C 0,0 km/h (0 Bft) 100 %
05.12.2021 10:25 1,7 C 99 % 1007,2 hPa 0,6 l/m 0,0 km/h (0 Bft) SO 132 0,000 mm 1,6 C 1,7 C 0,0 km/h (0 Bft) 100 %
05.12.2021 09:25 1,8 C 99 % 1006,8 hPa 0,6 l/m 0,0 km/h (0 Bft) SO 132 0,000 mm 1,7 C 1,8 C 0,0 km/h (0 Bft) 100 %
05.12.2021 08:25 2,0 C 99 % 1006,9 hPa 0,2 l/m 0,0 km/h (0 Bft) N 0 0,000 mm 1,9 C 2,0 C 0,0 km/h (0 Bft) 96 %
05.12.2021 07:25 2,1 C 99 % 1006,1 hPa 0,4 l/m 0,0 km/h (0 Bft) N 0 0,000 mm 2,0 C 2,1 C 0,0 km/h (0 Bft) 96 %
05.12.2021 06:25 2,7 C 98 % 1006,2 hPa 1,4 l/m 0,4 km/h (0 Bft) S-SO 160 0,000 mm 2,4 C 2,7 C 3,2 km/h (1 Bft) 100 %
05.12.2021 05:25 3,3 C 99 % 1005,8 hPa 2,4 l/m 0,3 km/h (0 Bft) SO 131 0,000 mm 3,2 C 3,3 C 1,6 km/h (1 Bft) 100 %
05.12.2021 04:25 4,4 C 99 % 1004,6 hPa 1,0 l/m 1,1 km/h (1 Bft) O-SO 121 0,000 mm 4,3 C 4,4 C 6,4 km/h (2 Bft) 100 %
05.12.2021 03:25 2,3 C 100 % 1003,2 hPa 0,4 l/m 0,0 km/h (0 Bft) SO 139 0,000 mm 2,3 C 2,3 C 0,0 km/h (0 Bft) 100 %
05.12.2021 02:25 2,2 C 100 % 1002,9 hPa 0,2 l/m 0,0 km/h (0 Bft) SO 139 0,000 mm 2,2 C 2,2 C 0,0 km/h (0 Bft) 100 %
05.12.2021 01:25 2,1 C 100 % 1003,0 hPa 0,2 l/m 0,0 km/h (0 Bft) SO 139 0,000 mm 2,1 C 2,1 C 0,0 km/h (0 Bft) 100 %
05.12.2021 00:25 2,2 C 100 % 1003,2 hPa 0,8 l/m 0,0 km/h (0 Bft) SO 139 0,000 mm 2,2 C 2,2 C 0,0 km/h (0 Bft) 100 %
05.12.2021 00:00 2,1 C 100 % 1003,4 hPa 0,0 l/m 0,0 km/h (0 Bft) SO 139 0,000 mm 2,1 C 2,1 C 0,0 km/h (0 Bft) 100 %
_ Min-Zeit 23:25 04:35 02:50 - 00:00 - - - 23:25 23:25 00:00 02:15
Minimum _ 0,6 C 96 % 1002,8 hPa - 0,0 km/h (0 Bft) - - - 0,6 C 0,6 C 0,0 km/h (0 Bft) 85 %
_ Max-Zeit 04:25 00:00 22:50 05:10 04:35 - - 00:00 04:15 04:25 04:20 00:00
Maximum _ 4,4 C 100 % 1008,7 hPa 0,4 l/m 4,0 km/h
SO (1 Bft)
- - 0,000 mm 4,3 C 4,4 C 12,9 km/h
SW (3 Bft)
100 %
Durchschnitt _ 1,9 C 99 % 1006,3 hPa #11,2 l/m 0,1 km/h (0 Bft) SO - #0,000 mm 1,8 C 1,9 C 0,6 km/h (0 Bft) 99 %